createdAt,value
2018-03-21T00:01:10.493Z,60.00
2018-03-21T00:03:40.227Z,63.20
2018-03-21T00:06:09.449Z,63.20
2018-03-21T00:08:38.372Z,58.00
2018-03-21T00:11:07.640Z,62.00
2018-03-21T00:13:36.690Z,59.20
2018-03-21T00:16:05.883Z,60.20
2018-03-21T00:18:35.242Z,59.60
2018-03-21T00:21:04.588Z,60.60
2018-03-21T00:23:33.950Z,58.40
2018-03-21T00:26:03.788Z,62.40
2018-03-21T00:28:32.803Z,62.40
2018-03-21T00:31:02.123Z,62.80
2018-03-21T00:33:31.611Z,57.20
2018-03-21T00:36:00.997Z,62.20
2018-03-21T00:38:30.474Z,64.80
2018-03-21T00:40:59.504Z,76.60
2018-03-21T00:43:28.621Z,84.40
2018-03-21T00:45:57.780Z,79.60
2018-03-21T00:48:27.000Z,74.40
2018-03-21T00:50:56.380Z,75.60
2018-03-21T00:53:26.293Z,75.00
2018-03-21T00:55:55.689Z,77.40
2018-03-21T00:58:25.929Z,78.60
2018-03-21T01:00:54.774Z,78.20
2018-03-21T01:03:24.092Z,77.40
2018-03-21T01:05:54.035Z,79.40
2018-03-21T01:08:23.018Z,77.20
2018-03-21T01:10:52.286Z,79.60
2018-03-21T01:13:21.594Z,81.00
2018-03-21T01:15:50.822Z,78.20
2018-03-21T01:18:20.378Z,83.20
2018-03-21T01:20:50.013Z,80.40
2018-03-21T01:23:19.760Z,82.60
2018-03-21T01:25:49.057Z,82.00
2018-03-21T01:28:18.536Z,80.20
2018-03-21T01:30:47.980Z,76.40
2018-03-21T01:33:16.972Z,85.00
2018-03-21T01:35:46.599Z,82.00
2018-03-21T01:38:15.821Z,83.80
2018-03-21T01:40:45.350Z,82.60
2018-03-21T01:43:14.699Z,88.40
2018-03-21T01:45:43.678Z,90.00
2018-03-21T01:48:13.011Z,89.00
2018-03-21T01:50:42.214Z,89.20
2018-03-21T01:53:12.575Z,89.40
2018-03-21T01:55:41.925Z,93.60
2018-03-21T01:58:11.212Z,96.80
2018-03-21T02:00:40.399Z,90.40
2018-03-21T02:03:09.812Z,94.60
2018-03-21T02:05:39.371Z,84.60
2018-03-21T02:08:08.299Z,91.40
2018-03-21T02:10:37.468Z,88.60
2018-03-21T02:13:06.865Z,95.00
2018-03-21T02:15:36.160Z,93.20
2018-03-21T02:18:05.540Z,92.40
2018-03-21T02:20:35.024Z,96.00
2018-03-21T02:23:04.556Z,93.60
2018-03-21T02:25:34.066Z,96.40
2018-03-21T02:28:03.186Z,93.60
2018-03-21T02:30:32.702Z,97.00
2018-03-21T02:33:02.131Z,93.40
2018-03-21T02:35:31.617Z,97.60
2018-03-21T02:38:00.911Z,98.60
2018-03-21T02:40:29.825Z,106.60
2018-03-21T02:42:58.939Z,110.50
2018-03-21T02:45:28.018Z,121.75
2018-03-21T02:47:57.158Z,130.75
2018-03-21T02:50:26.589Z,127.50
2018-03-21T02:52:56.059Z,128.25
2018-03-21T02:55:25.397Z,128.00
2018-03-21T02:57:54.957Z,129.25
2018-03-21T03:00:25.427Z,114.00
2018-03-21T03:02:54.791Z,120.00
2018-03-21T03:05:24.351Z,136.50
2018-03-21T03:07:53.577Z,124.50
2018-03-21T03:10:22.522Z,121.75
2018-03-21T03:12:52.123Z,132.00
2018-03-21T03:15:21.280Z,118.25
2018-03-21T03:17:50.883Z,100.75
2018-03-21T03:20:20.186Z,103.60
2018-03-21T03:22:49.618Z,99.20
2018-03-21T03:25:18.873Z,89.40
2018-03-21T03:27:48.385Z,97.00
2018-03-21T03:30:17.831Z,84.20
2018-03-21T03:32:47.491Z,87.80
2018-03-21T03:35:17.180Z,92.80
2018-03-21T03:37:46.372Z,91.20
2018-03-21T03:40:15.252Z,88.60
2018-03-21T03:42:44.521Z,78.60
2018-03-21T03:45:13.812Z,78.60
2018-03-21T03:47:42.949Z,77.40
2018-03-21T03:50:12.327Z,77.40
2018-03-21T03:52:41.658Z,81.00
2018-03-21T03:55:11.067Z,81.60
2018-03-21T03:57:40.454Z,80.20
2018-03-21T04:00:09.600Z,67.60
2018-03-21T04:02:40.045Z,65.60
2018-03-21T04:05:09.249Z,72.40
2018-03-21T04:07:38.745Z,75.00
2018-03-21T04:10:08.245Z,75.20
2018-03-21T04:12:37.455Z,80.20
2018-03-21T04:15:06.692Z,80.80
2018-03-21T04:17:36.158Z,85.80
2018-03-21T04:20:05.565Z,74.80
2018-03-21T04:22:34.876Z,73.20
2018-03-21T04:25:04.285Z,67.60
2018-03-21T04:28:58.032Z,63.20
2018-03-21T04:31:42.842Z,61.20
2018-03-21T04:34:12.371Z,59.20
2018-03-21T04:36:41.915Z,53.40
2018-03-21T04:39:11.351Z,53.00
2018-03-21T04:41:40.831Z,54.00
2018-03-21T04:44:10.360Z,51.20
2018-03-21T04:46:40.404Z,48.60
2018-03-21T04:49:10.868Z,50.20
2018-03-21T04:51:40.934Z,47.20
2018-03-21T04:54:11.358Z,52.20
2018-03-21T04:56:42.399Z,41.80
2018-03-21T04:59:14.072Z,41.20
2018-03-21T05:01:45.360Z,40.40
2018-03-21T05:04:18.205Z,41.20
2018-03-21T05:06:50.232Z,42.60
2018-03-21T05:09:22.215Z,41.40
2018-03-21T05:11:52.797Z,39.20
2018-03-21T05:14:24.038Z,41.00
2018-03-21T05:16:53.623Z,39.60
2018-03-21T05:19:25.161Z,35.20
2018-03-21T05:21:56.854Z,35.20
2018-03-21T05:24:29.088Z,35.60
2018-03-21T05:27:01.618Z,35.20
2018-03-21T05:29:35.370Z,34.20
2018-03-21T05:32:06.961Z,35.20
2018-03-21T05:34:38.913Z,35.00
2018-03-21T05:37:12.177Z,35.60
2018-03-21T05:39:44.547Z,34.60
2018-03-21T05:42:18.311Z,35.60
2018-03-21T05:44:51.305Z,36.80
2018-03-21T05:47:23.034Z,35.20
2018-03-21T05:49:55.812Z,35.20
2018-03-21T05:52:27.941Z,33.00
2018-03-21T05:55:00.858Z,34.80
2018-03-21T05:57:32.718Z,34.00
2018-03-21T06:00:05.357Z,35.00
2018-03-21T06:02:38.009Z,33.20
2018-03-21T06:05:12.366Z,33.00
2018-03-21T06:07:45.899Z,33.00
2018-03-21T06:10:19.708Z,31.60
2018-03-21T06:12:52.515Z,29.00
2018-03-21T06:15:26.857Z,28.00
2018-03-21T06:17:58.578Z,28.00
2018-03-21T06:20:31.136Z,28.20
2018-03-21T06:23:02.458Z,28.60
2018-03-21T06:25:35.250Z,29.00
2018-03-21T06:28:08.768Z,30.00
2018-03-21T06:30:42.372Z,30.00
2018-03-21T06:33:16.421Z,29.60
2018-03-21T06:35:48.042Z,30.00
2018-03-21T06:38:20.364Z,30.20
2018-03-21T06:40:52.670Z,28.60
2018-03-21T06:43:25.467Z,31.00
2018-03-21T06:45:58.025Z,31.20
2018-03-21T06:48:30.342Z,31.00
2018-03-21T06:51:02.586Z,31.00
2018-03-21T06:53:34.413Z,33.20
2018-03-21T06:56:07.359Z,31.20
2018-03-21T06:58:40.539Z,32.00
2018-03-21T07:01:12.662Z,31.20
2018-03-21T07:03:44.117Z,30.60
2018-03-21T07:06:17.620Z,29.40
2018-03-21T07:08:50.290Z,29.00
2018-03-21T07:11:24.199Z,30.00
2018-03-21T07:14:07.644Z,31.00
2018-03-21T07:16:47.906Z,31.00
2018-03-21T07:19:22.356Z,29.40
2018-03-21T07:21:56.027Z,30.40
2018-03-21T07:24:29.847Z,28.00
2018-03-21T07:27:02.994Z,28.20
2018-03-21T07:29:36.424Z,29.00
2018-03-21T07:32:10.430Z,28.40
2018-03-21T07:34:44.027Z,28.00
2018-03-21T07:37:15.533Z,28.60
2018-03-21T07:39:51.018Z,28.20
2018-03-21T07:42:28.662Z,29.20
2018-03-21T07:45:05.202Z,28.80
2018-03-21T07:50:20.968Z,26.40
2018-03-21T07:52:55.614Z,27.80
2018-03-21T07:55:28.846Z,26.20
2018-03-21T07:58:00.750Z,27.00
2018-03-21T08:00:35.533Z,25.80
2018-03-21T08:03:05.882Z,22.80
2018-03-21T08:05:35.297Z,24.80
2018-03-21T08:08:04.604Z,23.60
2018-03-21T08:10:34.275Z,23.40
2018-03-21T08:13:03.648Z,22.20
2018-03-21T08:15:32.889Z,22.80
2018-03-21T08:18:02.686Z,22.20
2018-03-21T08:20:32.020Z,22.00
2018-03-21T08:23:01.865Z,21.00
2018-03-21T08:25:31.399Z,22.20
2018-03-21T08:28:00.736Z,20.00
2018-03-21T08:30:30.176Z,21.00
2018-03-21T08:33:00.900Z,20.20
2018-03-21T08:35:30.143Z,20.00
2018-03-21T08:38:00.211Z,20.00
2018-03-21T08:40:30.391Z,20.00
2018-03-21T08:43:01.297Z,21.40
2018-03-21T08:45:31.663Z,19.20
2018-03-21T08:48:03.147Z,19.80
2018-03-21T08:50:35.095Z,18.60
2018-03-21T08:53:06.266Z,18.80
2018-03-21T08:55:39.193Z,18.80
2018-03-21T08:58:09.158Z,20.00
2018-03-21T09:00:40.632Z,20.00
2018-03-21T09:03:11.776Z,21.60
2018-03-21T09:05:42.581Z,20.80
2018-03-21T09:08:13.716Z,20.00
2018-03-21T09:10:44.630Z,20.80
2018-03-21T09:13:14.472Z,20.40
2018-03-21T09:15:45.688Z,21.00
2018-03-21T09:18:17.011Z,20.60
2018-03-21T09:20:47.678Z,21.20
2018-03-21T09:23:18.259Z,20.40
2018-03-21T09:25:49.594Z,20.80
2018-03-21T09:28:21.366Z,20.00
2018-03-21T09:30:52.365Z,22.00
2018-03-21T09:33:23.678Z,20.00
2018-03-21T09:35:57.109Z,15.00
2018-03-21T09:38:28.524Z,17.40
2018-03-21T09:41:01.886Z,17.20
2018-03-21T09:43:33.387Z,16.00
2018-03-21T09:46:07.875Z,16.80
2018-03-21T09:48:39.755Z,14.80
2018-03-21T09:51:11.101Z,13.80
2018-03-21T09:53:42.385Z,13.40
2018-03-21T09:56:15.740Z,13.60
2018-03-21T09:58:48.215Z,11.20
2018-03-21T10:01:18.962Z,11.60
2018-03-21T10:03:49.887Z,13.20
2018-03-21T10:06:21.239Z,11.60
2018-03-21T10:08:51.367Z,13.20
2018-03-21T10:11:21.505Z,12.60
2018-03-21T10:13:50.413Z,11.00
2018-03-21T10:16:20.600Z,10.00
2018-03-21T10:18:50.549Z,10.80
2018-03-21T10:21:21.338Z,10.60
2018-03-21T10:23:54.048Z,9.80
2018-03-21T10:26:24.251Z,9.20
2018-03-21T10:28:54.662Z,11.00
2018-03-21T10:31:26.617Z,12.20
2018-03-21T10:33:57.095Z,10.40
2018-03-21T10:36:28.498Z,10.20
2018-03-21T10:39:00.221Z,9.00
2018-03-21T10:41:30.674Z,20.00
2018-03-21T10:44:01.072Z,11.00
2018-03-21T10:46:31.808Z,11.00
2018-03-21T10:49:02.110Z,9.80
2018-03-21T10:51:32.497Z,10.80
2018-03-21T10:54:02.477Z,12.60
2018-03-21T10:56:32.861Z,14.20
2018-03-21T10:59:03.176Z,12.00
2018-03-21T11:01:37.048Z,12.00
2018-03-21T11:04:06.961Z,12.40
2018-03-21T11:06:36.718Z,17.80
2018-03-21T11:09:07.336Z,14.00
2018-03-21T11:11:38.617Z,12.20
2018-03-21T11:14:08.232Z,10.60
2018-03-21T11:16:40.521Z,8.40
2018-03-21T11:19:11.392Z,11.40
2018-03-21T11:21:41.229Z,11.80
2018-03-21T11:24:11.412Z,9.60
2018-03-21T11:26:41.071Z,11.00
2018-03-21T11:29:10.412Z,9.80
2018-03-21T11:31:39.851Z,11.40
2018-03-21T11:34:09.561Z,15.20
2018-03-21T11:36:39.713Z,21.20
2018-03-21T11:39:09.188Z,25.40
2018-03-21T11:41:39.629Z,20.20
2018-03-21T11:44:09.370Z,13.80
2018-03-21T11:46:39.216Z,12.20
2018-03-21T11:49:08.959Z,10.40
2018-03-21T11:51:41.722Z,14.40
2018-03-21T11:54:11.084Z,16.40
2018-03-21T11:56:40.725Z,15.40
2018-03-21T11:59:11.291Z,20.20
2018-03-21T12:01:41.284Z,21.00
2018-03-21T12:04:10.887Z,19.20
2018-03-21T12:06:41.746Z,17.00
2018-03-21T12:09:11.794Z,16.80
2018-03-21T12:11:41.194Z,16.20
2018-03-21T12:14:10.812Z,16.40
2018-03-21T12:16:40.443Z,13.40
2018-03-21T12:19:09.907Z,16.00
2018-03-21T12:21:39.526Z,17.40
2018-03-21T12:24:08.927Z,13.00
2018-03-21T12:26:38.498Z,17.40
2018-03-21T12:29:08.521Z,19.40
2018-03-21T12:31:37.922Z,19.20
2018-03-21T12:34:07.248Z,20.20
2018-03-21T12:36:36.599Z,20.20
2018-03-21T12:39:06.140Z,21.20
2018-03-21T12:41:35.850Z,22.20
2018-03-21T12:44:05.808Z,22.40
2018-03-21T12:46:35.515Z,23.40
2018-03-21T12:49:05.102Z,26.60
2018-03-21T12:51:34.560Z,26.40
2018-03-21T12:54:03.832Z,23.80
2018-03-21T12:56:33.442Z,23.20
2018-03-21T12:59:02.777Z,23.20
2018-03-21T13:01:31.930Z,25.20
2018-03-21T13:04:01.406Z,23.60
2018-03-21T13:06:31.178Z,23.40
2018-03-21T13:09:00.579Z,21.60
2018-03-21T13:11:29.848Z,21.80
2018-03-21T13:13:59.575Z,24.60
2018-03-21T13:16:29.177Z,26.40
2018-03-21T13:18:58.829Z,23.60
2018-03-21T13:21:29.462Z,23.60
2018-03-21T13:23:58.843Z,25.00
2018-03-21T13:26:28.227Z,23.60
2018-03-21T13:28:57.571Z,23.80
2018-03-21T13:31:27.066Z,17.80
2018-03-21T13:33:56.468Z,25.40
2018-03-21T13:36:26.003Z,26.40
2018-03-21T13:38:55.250Z,27.00
2018-03-21T13:41:24.856Z,26.40
2018-03-21T13:43:54.609Z,27.20
2018-03-21T13:46:25.016Z,30.00
2018-03-21T13:48:54.475Z,31.00
2018-03-21T13:51:23.867Z,30.80
2018-03-21T13:53:53.792Z,30.20
2018-03-21T13:56:23.342Z,26.40
2018-03-21T13:58:53.114Z,22.00
2018-03-21T14:01:22.564Z,22.20
2018-03-21T14:03:52.193Z,23.00
2018-03-21T14:06:21.833Z,23.20
2018-03-21T14:08:51.327Z,21.80
2018-03-21T14:11:20.723Z,23.40
2018-03-21T14:13:50.223Z,23.40
2018-03-21T14:16:20.070Z,25.60
2018-03-21T14:18:49.208Z,25.40
2018-03-21T14:21:18.771Z,23.40
2018-03-21T14:23:48.019Z,21.80
2018-03-21T14:26:17.946Z,22.00
2018-03-21T14:28:47.395Z,22.80
2018-03-21T14:31:17.807Z,24.00
2018-03-21T14:33:47.471Z,25.80
2018-03-21T14:36:16.732Z,27.00
2018-03-21T14:38:45.872Z,29.20
2018-03-21T14:41:15.617Z,29.40
2018-03-21T14:43:45.120Z,30.20
2018-03-21T14:46:14.634Z,29.80
2018-03-21T14:48:43.953Z,31.00
2018-03-21T14:51:13.815Z,33.00
2018-03-21T14:53:42.929Z,30.80
2018-03-21T14:56:12.568Z,32.60
2018-03-21T14:58:41.846Z,33.60
2018-03-21T15:01:11.532Z,33.80
2018-03-21T15:03:40.775Z,35.80
2018-03-21T15:06:10.197Z,36.00
2018-03-21T15:08:39.617Z,36.00
2018-03-21T15:11:08.820Z,36.00
2018-03-21T15:13:38.172Z,37.40
2018-03-21T15:16:07.968Z,39.80
2018-03-21T15:18:37.292Z,37.60
2018-03-21T15:21:06.726Z,40.20
2018-03-21T15:23:36.388Z,40.80
2018-03-21T15:26:05.975Z,38.60
2018-03-21T15:28:35.392Z,42.00
2018-03-21T15:31:04.756Z,42.00
2018-03-21T15:33:33.926Z,42.40
2018-03-21T15:36:03.444Z,41.00
2018-03-21T15:38:32.455Z,41.60
2018-03-21T15:41:01.849Z,42.00
2018-03-21T15:43:31.629Z,44.00
2018-03-21T15:46:00.976Z,44.40
2018-03-21T15:48:31.491Z,43.00
2018-03-21T15:53:13.045Z,43.60
2018-03-21T15:55:43.495Z,42.80
2018-03-21T15:58:12.804Z,42.00
2018-03-21T16:00:43.715Z,46.00
2018-03-21T16:03:13.344Z,45.80
2018-03-21T16:05:43.218Z,42.40
2018-03-21T16:08:12.685Z,44.60
2018-03-21T16:10:42.493Z,47.20
2018-03-21T16:13:12.166Z,49.20
2018-03-21T16:15:42.080Z,47.00
2018-03-21T16:18:12.291Z,44.80
2018-03-21T16:20:41.932Z,46.50
2018-03-21T16:23:11.671Z,48.40
2018-03-21T16:25:41.402Z,47.80
2018-03-21T16:28:11.898Z,49.80
2018-03-21T16:30:42.931Z,50.40
2018-03-21T16:33:13.004Z,49.60
2018-03-21T16:35:42.887Z,51.40
2018-03-21T16:38:15.898Z,49.00
2018-03-21T16:40:46.554Z,51.20
2018-03-21T16:43:16.550Z,51.80
2018-03-21T16:45:46.849Z,51.20
2018-03-21T16:48:16.733Z,51.00
2018-03-21T16:56:51.397Z,54.80
2018-03-21T17:05:16.325Z,56.20
2018-03-21T17:07:59.067Z,56.00
2018-03-21T17:22:07.819Z,60.20
2018-03-21T17:24:37.719Z,61.60
2018-03-21T17:27:08.864Z,59.80
2018-03-21T17:29:42.902Z,61.60
2018-03-21T17:32:18.860Z,61.80
2018-03-21T17:34:49.807Z,63.00
2018-03-21T17:37:23.318Z,63.00
2018-03-21T17:39:55.433Z,63.00
2018-03-21T17:42:26.478Z,65.20
2018-03-21T17:44:58.052Z,64.80
2018-03-21T17:47:28.977Z,60.60
2018-03-21T17:49:59.723Z,63.20
2018-03-21T17:52:30.851Z,63.00
2018-03-21T17:55:01.140Z,60.60
2018-03-21T17:57:31.903Z,65.80
2018-03-21T18:00:02.613Z,64.40
2018-03-21T18:02:34.680Z,65.60
2018-03-21T18:05:05.686Z,63.80
2018-03-21T18:07:37.778Z,59.60
2018-03-21T18:10:07.484Z,64.80
2018-03-21T18:12:39.145Z,68.00
2018-03-21T18:15:09.014Z,67.20
2018-03-21T18:17:39.742Z,71.00
2018-03-21T18:20:11.730Z,67.00
2018-03-21T18:22:41.830Z,68.00
2018-03-21T18:25:11.507Z,64.80
2018-03-21T18:27:41.379Z,66.60
2018-03-21T18:30:11.218Z,71.00
2018-03-21T18:32:40.795Z,71.20
2018-03-21T18:35:11.588Z,69.40
2018-03-21T18:37:42.175Z,73.20
2018-03-21T18:40:13.011Z,70.60
2018-03-21T18:42:42.663Z,71.60
2018-03-21T18:45:12.796Z,72.60
2018-03-21T18:50:36.908Z,73.00
2018-03-21T18:53:06.178Z,75.40
2018-03-21T18:55:36.542Z,74.80
2018-03-21T18:58:06.686Z,75.40
2018-03-21T19:00:36.226Z,74.00
2018-03-21T19:03:05.545Z,71.60
2018-03-21T19:05:35.272Z,79.00
2018-03-21T19:08:05.034Z,78.00
2018-03-21T19:10:34.665Z,77.60
2018-03-21T19:13:03.945Z,79.00
2018-03-21T19:15:33.215Z,73.40
2018-03-21T19:18:03.049Z,79.00
2018-03-21T19:20:32.123Z,78.00
2018-03-21T19:23:01.347Z,75.60
2018-03-21T19:25:30.856Z,81.00
2018-03-21T19:28:00.322Z,80.20
2018-03-21T19:30:30.205Z,74.20
2018-03-21T19:32:59.352Z,75.80
2018-03-21T19:35:28.533Z,75.00
2018-03-21T19:37:57.673Z,76.20
2018-03-21T19:40:26.653Z,74.80
2018-03-21T19:42:56.117Z,72.80
2018-03-21T19:45:25.670Z,76.80
2018-03-21T19:47:55.603Z,76.60
2018-03-21T19:50:25.389Z,79.40
2018-03-21T19:52:54.632Z,81.80
2018-03-21T19:55:24.034Z,78.00
2018-03-21T19:57:53.448Z,82.40
2018-03-21T20:00:22.932Z,82.20
2018-03-21T20:02:52.473Z,81.00
2018-03-21T20:05:21.864Z,81.00
2018-03-21T20:07:51.519Z,75.00
2018-03-21T20:10:20.687Z,83.20
2018-03-21T20:12:50.229Z,88.00
2018-03-21T20:15:19.700Z,83.40
2018-03-21T20:17:49.325Z,85.00
2018-03-21T20:20:18.699Z,86.00
2018-03-21T20:22:48.192Z,86.40
2018-03-21T20:25:17.626Z,84.80
2018-03-21T20:27:46.898Z,82.80
2018-03-21T20:30:16.529Z,83.40
2018-03-21T20:32:46.171Z,82.80
2018-03-21T20:35:15.420Z,85.80
2018-03-21T20:37:44.738Z,87.40
2018-03-21T20:40:14.173Z,84.20
2018-03-21T20:42:43.297Z,82.40
2018-03-21T20:45:12.628Z,87.60
2018-03-21T20:47:41.823Z,81.60
2018-03-21T20:50:11.275Z,86.00
2018-03-21T20:52:40.920Z,87.20
2018-03-21T20:55:10.244Z,87.00
2018-03-21T20:57:40.312Z,85.60
2018-03-21T21:00:09.724Z,83.60
2018-03-21T21:02:39.101Z,86.80
2018-03-21T21:05:08.582Z,87.00
2018-03-21T21:07:38.849Z,88.40
2018-03-21T21:10:07.993Z,88.80
2018-03-21T21:12:37.567Z,88.60
2018-03-21T21:15:07.227Z,82.20
2018-03-21T21:17:36.609Z,89.40
2018-03-21T21:20:06.315Z,85.60
2018-03-21T21:22:35.550Z,86.40
2018-03-21T21:25:04.975Z,87.40
2018-03-21T21:27:34.450Z,88.40
2018-03-21T21:30:04.097Z,92.80
2018-03-21T21:32:33.307Z,91.40
2018-03-21T21:35:02.847Z,90.60
2018-03-21T21:37:32.324Z,92.20
2018-03-21T21:40:01.838Z,91.00
2018-03-21T21:42:31.163Z,92.40
2018-03-21T21:45:00.547Z,92.20
2018-03-21T21:47:45.239Z,93.40
2018-03-21T21:50:14.902Z,95.00
2018-03-21T21:52:44.762Z,88.60
2018-03-21T21:55:14.170Z,92.00
2018-03-21T21:57:43.961Z,92.60
2018-03-21T22:00:13.943Z,96.00
2018-03-21T22:02:43.256Z,93.20
2018-03-21T22:05:12.572Z,94.20
2018-03-21T22:07:42.281Z,92.80
2018-03-21T22:10:11.738Z,96.20
2018-03-21T22:12:41.227Z,95.75
2018-03-21T22:15:10.634Z,94.00
2018-03-21T22:17:40.329Z,97.50
2018-03-21T22:20:09.848Z,99.00
2018-03-21T22:22:39.405Z,98.25
2018-03-21T22:28:02.757Z,97.60
2018-03-21T22:30:32.104Z,96.60
2018-03-21T22:33:01.455Z,99.75
2018-03-21T22:38:24.655Z,102.25
2018-03-21T22:40:54.226Z,100.00
2018-03-21T22:43:23.329Z,97.50
2018-03-21T22:45:52.489Z,97.00
2018-03-21T22:48:22.011Z,105.00
2018-03-21T22:50:51.276Z,101.25
2018-03-21T22:53:20.752Z,94.50
2018-03-21T22:55:50.118Z,93.00
2018-03-21T22:58:20.096Z,96.40
2018-03-21T23:00:49.343Z,99.75
2018-03-21T23:03:18.820Z,100.00
2018-03-21T23:05:48.172Z,100.80
2018-03-21T23:08:17.450Z,95.20
2018-03-21T23:10:46.834Z,98.50
2018-03-21T23:13:16.418Z,100.00
2018-03-21T23:15:45.811Z,99.20
2018-03-21T23:18:15.092Z,97.00
2018-03-21T23:20:44.487Z,95.60
2018-03-21T23:23:13.857Z,99.00
2018-03-21T23:25:43.189Z,99.25
2018-03-21T23:28:12.262Z,98.75
2018-03-21T23:30:41.499Z,96.50
2018-03-21T23:33:10.719Z,98.00
2018-03-21T23:35:40.206Z,97.00
2018-03-21T23:38:09.505Z,99.00
2018-03-21T23:40:38.996Z,96.25
2018-03-21T23:43:08.180Z,96.50
2018-03-21T23:45:37.502Z,96.50
2018-03-21T23:48:06.727Z,93.50
2018-03-21T23:50:36.108Z,95.60
2018-03-21T23:53:05.259Z,95.75
2018-03-21T23:55:34.590Z,100.40
